sensor_id;sensor_type;location;lat;lon;timestamp;P1;durP1;ratioP1;P2;durP2;ratioP2
40198;SDS011;25906;43.536;26.068;2023-10-19T00:00:42;2.15;;;1.67;;
40198;SDS011;25906;43.536;26.068;2023-10-19T00:03:33;5.72;;;1.65;;
40198;SDS011;25906;43.536;26.068;2023-10-19T00:06:19;2.97;;;1.88;;
40198;SDS011;25906;43.536;26.068;2023-10-19T00:09:04;2.55;;;1.52;;
40198;SDS011;25906;43.536;26.068;2023-10-19T00:11:50;6.10;;;1.70;;
40198;SDS011;25906;43.536;26.068;2023-10-19T00:14:36;4.28;;;1.50;;
40198;SDS011;25906;43.536;26.068;2023-10-19T00:17:22;3.05;;;1.80;;
40198;SDS011;25906;43.536;26.068;2023-10-19T00:20:08;2.33;;;1.60;;
40198;SDS011;25906;43.536;26.068;2023-10-19T00:23:22;6.05;;;2.05;;
40198;SDS011;25906;43.536;26.068;2023-10-19T00:26:14;6.95;;;1.60;;
40198;SDS011;25906;43.536;26.068;2023-10-19T00:29:02;6.13;;;1.70;;
40198;SDS011;25906;43.536;26.068;2023-10-19T00:32:03;2.70;;;1.40;;
40198;SDS011;25906;43.536;26.068;2023-10-19T00:34:51;4.30;;;1.40;;
40198;SDS011;25906;43.536;26.068;2023-10-19T00:37:36;3.88;;;1.48;;
40198;SDS011;25906;43.536;26.068;2023-10-19T00:40:27;6.53;;;1.40;;
40198;SDS011;25906;43.536;26.068;2023-10-19T00:43:28;2.83;;;1.58;;
40198;SDS011;25906;43.536;26.068;2023-10-19T00:46:42;3.72;;;1.60;;
40198;SDS011;25906;43.536;26.068;2023-10-19T00:49:28;3.05;;;1.48;;
40198;SDS011;25906;43.536;26.068;2023-10-19T00:52:14;4.15;;;1.30;;
40198;SDS011;25906;43.536;26.068;2023-10-19T00:55:04;2.72;;;1.38;;
40198;SDS011;25906;43.536;26.068;2023-10-19T00:57:52;2.75;;;1.42;;
40198;SDS011;25906;43.536;26.068;2023-10-19T01:00:39;6.15;;;1.70;;
40198;SDS011;25906;43.536;26.068;2023-10-19T01:03:28;4.57;;;1.67;;
40198;SDS011;25906;43.536;26.068;2023-10-19T01:06:17;2.30;;;1.50;;
40198;SDS011;25906;43.536;26.068;2023-10-19T01:09:05;1.85;;;1.40;;
40198;SDS011;25906;43.536;26.068;2023-10-19T01:11:50;4.03;;;1.67;;
40198;SDS011;25906;43.536;26.068;2023-10-19T01:14:37;2.05;;;1.38;;
40198;SDS011;25906;43.536;26.068;2023-10-19T01:20:12;3.22;;;1.50;;
40198;SDS011;25906;43.536;26.068;2023-10-19T01:23:08;5.95;;;1.52;;
40198;SDS011;25906;43.536;26.068;2023-10-19T01:25:55;1.35;;;1.13;;
40198;SDS011;25906;43.536;26.068;2023-10-19T01:28:44;3.08;;;1.23;;
40198;SDS011;25906;43.536;26.068;2023-10-19T01:31:33;3.28;;;1.38;;
40198;SDS011;25906;43.536;26.068;2023-10-19T01:34:23;4.10;;;1.30;;
40198;SDS011;25906;43.536;26.068;2023-10-19T01:37:11;2.95;;;1.55;;
40198;SDS011;25906;43.536;26.068;2023-10-19T01:39:57;3.20;;;1.67;;
40198;SDS011;25906;43.536;26.068;2023-10-19T01:42:42;2.25;;;1.13;;
40198;SDS011;25906;43.536;26.068;2023-10-19T01:45:28;5.00;;;1.40;;
40198;SDS011;25906;43.536;26.068;2023-10-19T01:48:13;3.10;;;1.95;;
40198;SDS011;25906;43.536;26.068;2023-10-19T01:51:02;1.77;;;1.20;;
40198;SDS011;25906;43.536;26.068;2023-10-19T01:53:51;8.02;;;1.35;;
40198;SDS011;25906;43.536;26.068;2023-10-19T01:56:37;3.70;;;1.50;;
40198;SDS011;25906;43.536;26.068;2023-10-19T01:59:23;5.70;;;1.90;;
40198;SDS011;25906;43.536;26.068;2023-10-19T02:02:12;4.32;;;1.67;;
40198;SDS011;25906;43.536;26.068;2023-10-19T02:04:58;2.33;;;1.27;;
40198;SDS011;25906;43.536;26.068;2023-10-19T02:07:44;3.55;;;1.30;;
40198;SDS011;25906;43.536;26.068;2023-10-19T02:10:30;5.78;;;1.52;;
40198;SDS011;25906;43.536;26.068;2023-10-19T02:13:17;2.22;;;1.50;;
40198;SDS011;25906;43.536;26.068;2023-10-19T02:16:04;1.80;;;1.27;;
40198;SDS011;25906;43.536;26.068;2023-10-19T02:18:50;2.10;;;1.30;;
40198;SDS011;25906;43.536;26.068;2023-10-19T02:21:35;3.72;;;1.48;;
40198;SDS011;25906;43.536;26.068;2023-10-19T02:24:25;1.85;;;1.60;;
40198;SDS011;25906;43.536;26.068;2023-10-19T02:27:11;4.78;;;1.50;;
40198;SDS011;25906;43.536;26.068;2023-10-19T02:29:56;2.30;;;1.50;;
40198;SDS011;25906;43.536;26.068;2023-10-19T02:32:42;6.70;;;2.05;;
40198;SDS011;25906;43.536;26.068;2023-10-19T02:35:28;3.17;;;1.45;;
40198;SDS011;25906;43.536;26.068;2023-10-19T02:38:14;3.67;;;1.88;;
40198;SDS011;25906;43.536;26.068;2023-10-19T02:40:59;4.68;;;1.50;;
40198;SDS011;25906;43.536;26.068;2023-10-19T02:43:48;4.47;;;1.83;;
40198;SDS011;25906;43.536;26.068;2023-10-19T02:46:46;5.80;;;1.70;;
40198;SDS011;25906;43.536;26.068;2023-10-19T02:49:33;3.88;;;2.10;;
40198;SDS011;25906;43.536;26.068;2023-10-19T02:52:23;2.75;;;2.13;;
40198;SDS011;25906;43.536;26.068;2023-10-19T02:55:09;5.70;;;1.70;;
40198;SDS011;25906;43.536;26.068;2023-10-19T02:57:55;3.05;;;1.80;;
40198;SDS011;25906;43.536;26.068;2023-10-19T03:00:41;1.98;;;1.77;;
40198;SDS011;25906;43.536;26.068;2023-10-19T03:03:27;2.22;;;1.75;;
40198;SDS011;25906;43.536;26.068;2023-10-19T03:06:19;3.72;;;1.60;;
40198;SDS011;25906;43.536;26.068;2023-10-19T03:09:08;3.70;;;1.92;;
40198;SDS011;25906;43.536;26.068;2023-10-19T03:12:23;5.28;;;1.90;;
40198;SDS011;25906;43.536;26.068;2023-10-19T03:15:11;3.47;;;1.77;;
40198;SDS011;25906;43.536;26.068;2023-10-19T03:17:59;2.03;;;1.70;;
40198;SDS011;25906;43.536;26.068;2023-10-19T03:20:46;4.88;;;2.33;;
40198;SDS011;25906;43.536;26.068;2023-10-19T03:23:36;1.85;;;1.63;;
40198;SDS011;25906;43.536;26.068;2023-10-19T03:26:22;3.97;;;2.30;;
40198;SDS011;25906;43.536;26.068;2023-10-19T03:29:21;8.75;;;1.67;;
40198;SDS011;25906;43.536;26.068;2023-10-19T03:32:11;5.60;;;1.67;;
40198;SDS011;25906;43.536;26.068;2023-10-19T03:35:01;7.75;;;2.00;;
40198;SDS011;25906;43.536;26.068;2023-10-19T03:37:48;3.13;;;2.00;;
40198;SDS011;25906;43.536;26.068;2023-10-19T03:40:36;3.17;;;1.58;;
40198;SDS011;25906;43.536;26.068;2023-10-19T03:43:23;3.33;;;1.90;;
40198;SDS011;25906;43.536;26.068;2023-10-19T03:46:12;2.70;;;1.85;;
40198;SDS011;25906;43.536;26.068;2023-10-19T03:49:13;4.40;;;2.08;;
40198;SDS011;25906;43.536;26.068;2023-10-19T03:52:02;4.15;;;2.10;;
40198;SDS011;25906;43.536;26.068;2023-10-19T03:55:05;2.80;;;1.85;;
40198;SDS011;25906;43.536;26.068;2023-10-19T03:58:08;4.53;;;2.00;;
40198;SDS011;25906;43.536;26.068;2023-10-19T04:00:53;5.57;;;2.03;;
40198;SDS011;25906;43.536;26.068;2023-10-19T04:03:40;3.95;;;2.10;;
40198;SDS011;25906;43.536;26.068;2023-10-19T04:06:25;5.57;;;2.08;;
40198;SDS011;25906;43.536;26.068;2023-10-19T04:09:13;6.50;;;2.20;;
40198;SDS011;25906;43.536;26.068;2023-10-19T04:12:02;3.70;;;2.00;;
40198;SDS011;25906;43.536;26.068;2023-10-19T04:14:47;6.05;;;2.25;;
40198;SDS011;25906;43.536;26.068;2023-10-19T04:17:33;6.93;;;2.60;;
40198;SDS011;25906;43.536;26.068;2023-10-19T04:20:21;5.22;;;2.47;;
40198;SDS011;25906;43.536;26.068;2023-10-19T04:23:07;5.90;;;2.25;;
40198;SDS011;25906;43.536;26.068;2023-10-19T04:25:57;4.70;;;2.60;;
40198;SDS011;25906;43.536;26.068;2023-10-19T04:28:43;4.05;;;2.20;;
40198;SDS011;25906;43.536;26.068;2023-10-19T04:31:34;5.88;;;3.05;;
40198;SDS011;25906;43.536;26.068;2023-10-19T04:34:22;11.80;;;2.65;;
40198;SDS011;25906;43.536;26.068;2023-10-19T04:37:14;6.68;;;2.88;;
40198;SDS011;25906;43.536;26.068;2023-10-19T04:40:03;6.55;;;2.72;;
40198;SDS011;25906;43.536;26.068;2023-10-19T04:42:53;8.80;;;3.50;;
40198;SDS011;25906;43.536;26.068;2023-10-19T04:48:25;3.53;;;2.80;;
40198;SDS011;25906;43.536;26.068;2023-10-19T04:51:10;5.63;;;3.03;;
40198;SDS011;25906;43.536;26.068;2023-10-19T04:53:58;6.93;;;3.63;;
40198;SDS011;25906;43.536;26.068;2023-10-19T04:56:43;10.30;;;3.22;;
40198;SDS011;25906;43.536;26.068;2023-10-19T04:59:31;4.88;;;2.83;;
40198;SDS011;25906;43.536;26.068;2023-10-19T05:02:18;4.55;;;2.97;;
40198;SDS011;25906;43.536;26.068;2023-10-19T05:05:03;6.03;;;2.83;;
40198;SDS011;25906;43.536;26.068;2023-10-19T05:07:49;8.32;;;3.20;;
40198;SDS011;25906;43.536;26.068;2023-10-19T05:10:36;5.22;;;2.83;;
40198;SDS011;25906;43.536;26.068;2023-10-19T05:13:23;4.43;;;2.85;;
40198;SDS011;25906;43.536;26.068;2023-10-19T05:16:11;9.48;;;2.92;;
40198;SDS011;25906;43.536;26.068;2023-10-19T05:18:56;5.05;;;3.03;;
40198;SDS011;25906;43.536;26.068;2023-10-19T05:21:42;9.00;;;2.95;;
40198;SDS011;25906;43.536;26.068;2023-10-19T05:24:28;5.07;;;2.55;;
40198;SDS011;25906;43.536;26.068;2023-10-19T05:27:14;6.53;;;2.67;;
40198;SDS011;25906;43.536;26.068;2023-10-19T05:30:00;9.93;;;3.72;;
40198;SDS011;25906;43.536;26.068;2023-10-19T05:32:50;7.40;;;2.78;;
40198;SDS011;25906;43.536;26.068;2023-10-19T05:35:36;5.55;;;3.05;;
40198;SDS011;25906;43.536;26.068;2023-10-19T05:38:25;4.88;;;2.72;;
40198;SDS011;25906;43.536;26.068;2023-10-19T05:41:12;6.85;;;2.60;;
40198;SDS011;25906;43.536;26.068;2023-10-19T05:44:03;6.97;;;2.58;;
40198;SDS011;25906;43.536;26.068;2023-10-19T05:46:49;7.47;;;3.05;;
40198;SDS011;25906;43.536;26.068;2023-10-19T05:49:40;5.43;;;3.08;;
40198;SDS011;25906;43.536;26.068;2023-10-19T05:52:25;8.88;;;2.97;;
40198;SDS011;25906;43.536;26.068;2023-10-19T05:55:14;4.70;;;2.50;;
40198;SDS011;25906;43.536;26.068;2023-10-19T05:58:00;8.40;;;2.78;;
40198;SDS011;25906;43.536;26.068;2023-10-19T06:00:46;4.43;;;2.83;;
40198;SDS011;25906;43.536;26.068;2023-10-19T06:03:32;5.18;;;2.20;;
40198;SDS011;25906;43.536;26.068;2023-10-19T06:06:18;4.20;;;2.80;;
40198;SDS011;25906;43.536;26.068;2023-10-19T06:09:05;3.45;;;2.78;;
40198;SDS011;25906;43.536;26.068;2023-10-19T06:11:53;6.07;;;2.75;;
40198;SDS011;25906;43.536;26.068;2023-10-19T06:14:39;9.80;;;3.03;;
40198;SDS011;25906;43.536;26.068;2023-10-19T06:17:24;6.65;;;2.80;;
40198;SDS011;25906;43.536;26.068;2023-10-19T06:20:10;7.80;;;2.63;;
40198;SDS011;25906;43.536;26.068;2023-10-19T06:23:08;7.43;;;3.38;;
40198;SDS011;25906;43.536;26.068;2023-10-19T06:25:54;4.97;;;3.05;;
40198;SDS011;25906;43.536;26.068;2023-10-19T06:28:41;10.43;;;5.00;;
40198;SDS011;25906;43.536;26.068;2023-10-19T06:31:27;7.22;;;3.95;;
40198;SDS011;25906;43.536;26.068;2023-10-19T06:34:13;4.97;;;2.90;;
40198;SDS011;25906;43.536;26.068;2023-10-19T06:36:59;4.05;;;2.70;;
40198;SDS011;25906;43.536;26.068;2023-10-19T06:39:48;4.47;;;3.05;;
40198;SDS011;25906;43.536;26.068;2023-10-19T06:42:36;4.18;;;2.67;;
40198;SDS011;25906;43.536;26.068;2023-10-19T06:45:22;11.65;;;3.00;;
40198;SDS011;25906;43.536;26.068;2023-10-19T06:48:09;4.53;;;3.00;;
40198;SDS011;25906;43.536;26.068;2023-10-19T06:50:56;4.65;;;3.13;;
40198;SDS011;25906;43.536;26.068;2023-10-19T06:53:42;4.03;;;2.97;;
40198;SDS011;25906;43.536;26.068;2023-10-19T06:56:27;4.43;;;3.00;;
40198;SDS011;25906;43.536;26.068;2023-10-19T06:59:13;6.70;;;2.95;;
40198;SDS011;25906;43.536;26.068;2023-10-19T07:02:02;7.45;;;3.08;;
40198;SDS011;25906;43.536;26.068;2023-10-19T07:04:47;5.20;;;3.20;;
40198;SDS011;25906;43.536;26.068;2023-10-19T07:07:35;9.05;;;3.55;;
40198;SDS011;25906;43.536;26.068;2023-10-19T07:10:20;5.68;;;3.40;;
40198;SDS011;25906;43.536;26.068;2023-10-19T07:13:08;6.35;;;3.95;;
40198;SDS011;25906;43.536;26.068;2023-10-19T07:15:54;8.65;;;3.83;;
40198;SDS011;25906;43.536;26.068;2023-10-19T07:18:44;7.03;;;4.13;;
40198;SDS011;25906;43.536;26.068;2023-10-19T07:21:29;5.55;;;3.90;;
40198;SDS011;25906;43.536;26.068;2023-10-19T07:24:20;3.58;;;3.28;;
40198;SDS011;25906;43.536;26.068;2023-10-19T07:27:08;6.53;;;3.75;;
40198;SDS011;25906;43.536;26.068;2023-10-19T07:30:03;6.45;;;3.88;;
40198;SDS011;25906;43.536;26.068;2023-10-19T07:32:54;5.35;;;3.55;;
40198;SDS011;25906;43.536;26.068;2023-10-19T07:35:43;5.13;;;3.83;;
40198;SDS011;25906;43.536;26.068;2023-10-19T07:38:31;4.88;;;3.60;;
40198;SDS011;25906;43.536;26.068;2023-10-19T07:41:18;6.00;;;3.60;;
40198;SDS011;25906;43.536;26.068;2023-10-19T07:44:04;8.18;;;3.47;;
40198;SDS011;25906;43.536;26.068;2023-10-19T07:46:51;5.55;;;3.47;;
40198;SDS011;25906;43.536;26.068;2023-10-19T07:49:37;8.88;;;4.20;;
40198;SDS011;25906;43.536;26.068;2023-10-19T07:52:26;4.82;;;3.90;;
40198;SDS011;25906;43.536;26.068;2023-10-19T07:55:11;5.82;;;4.03;;
40198;SDS011;25906;43.536;26.068;2023-10-19T07:57:58;5.80;;;3.97;;
40198;SDS011;25906;43.536;26.068;2023-10-19T08:00:51;6.40;;;3.97;;
40198;SDS011;25906;43.536;26.068;2023-10-19T08:03:37;6.88;;;4.38;;
40198;SDS011;25906;43.536;26.068;2023-10-19T08:06:23;7.55;;;4.00;;
40198;SDS011;25906;43.536;26.068;2023-10-19T08:09:08;6.97;;;4.22;;
40198;SDS011;25906;43.536;26.068;2023-10-19T08:11:56;9.05;;;4.40;;
40198;SDS011;25906;43.536;26.068;2023-10-19T08:14:44;4.88;;;4.30;;
40198;SDS011;25906;43.536;26.068;2023-10-19T08:17:31;5.32;;;4.22;;
40198;SDS011;25906;43.536;26.068;2023-10-19T08:20:19;5.30;;;4.40;;
40198;SDS011;25906;43.536;26.068;2023-10-19T08:23:16;8.88;;;4.20;;
40198;SDS011;25906;43.536;26.068;2023-10-19T08:26:08;5.07;;;3.83;;
40198;SDS011;25906;43.536;26.068;2023-10-19T08:28:53;7.65;;;3.67;;
40198;SDS011;25906;43.536;26.068;2023-10-19T08:31:40;5.13;;;4.03;;
40198;SDS011;25906;43.536;26.068;2023-10-19T08:34:26;6.32;;;3.85;;
40198;SDS011;25906;43.536;26.068;2023-10-19T08:37:12;6.13;;;3.50;;
40198;SDS011;25906;43.536;26.068;2023-10-19T08:39:59;5.75;;;3.60;;
40198;SDS011;25906;43.536;26.068;2023-10-19T08:42:45;13.73;;;4.00;;
40198;SDS011;25906;43.536;26.068;2023-10-19T08:48:19;4.13;;;3.25;;
40198;SDS011;25906;43.536;26.068;2023-10-19T08:51:08;6.07;;;3.22;;
40198;SDS011;25906;43.536;26.068;2023-10-19T08:53:55;6.80;;;2.70;;
40198;SDS011;25906;43.536;26.068;2023-10-19T08:56:40;4.50;;;2.88;;
40198;SDS011;25906;43.536;26.068;2023-10-19T08:59:27;3.25;;;2.70;;
40198;SDS011;25906;43.536;26.068;2023-10-19T09:02:15;5.22;;;3.05;;
40198;SDS011;25906;43.536;26.068;2023-10-19T09:05:07;7.45;;;2.60;;
40198;SDS011;25906;43.536;26.068;2023-10-19T09:07:53;4.13;;;2.60;;
40198;SDS011;25906;43.536;26.068;2023-10-19T09:10:42;4.72;;;3.13;;
40198;SDS011;25906;43.536;26.068;2023-10-19T09:13:31;3.00;;;2.70;;
40198;SDS011;25906;43.536;26.068;2023-10-19T09:16:28;3.00;;;2.70;;
40198;SDS011;25906;43.536;26.068;2023-10-19T09:19:15;3.78;;;3.35;;
40198;SDS011;25906;43.536;26.068;2023-10-19T09:22:01;4.63;;;2.92;;
40198;SDS011;25906;43.536;26.068;2023-10-19T09:24:52;3.70;;;2.70;;
40198;SDS011;25906;43.536;26.068;2023-10-19T09:27:38;3.78;;;2.88;;
40198;SDS011;25906;43.536;26.068;2023-10-19T09:33:11;4.18;;;3.08;;
40198;SDS011;25906;43.536;26.068;2023-10-19T09:35:59;3.50;;;2.72;;
40198;SDS011;25906;43.536;26.068;2023-10-19T09:38:50;3.70;;;2.80;;
40198;SDS011;25906;43.536;26.068;2023-10-19T09:41:36;2.75;;;2.40;;
40198;SDS011;25906;43.536;26.068;2023-10-19T09:44:22;5.30;;;2.80;;
40198;SDS011;25906;43.536;26.068;2023-10-19T09:47:11;5.05;;;2.65;;
40198;SDS011;25906;43.536;26.068;2023-10-19T09:49:59;3.85;;;2.72;;
40198;SDS011;25906;43.536;26.068;2023-10-19T09:52:45;2.85;;;2.42;;
40198;SDS011;25906;43.536;26.068;2023-10-19T09:55:37;2.42;;;2.10;;
40198;SDS011;25906;43.536;26.068;2023-10-19T09:58:27;3.47;;;2.28;;
40198;SDS011;25906;43.536;26.068;2023-10-19T10:01:17;1.80;;;1.70;;
40198;SDS011;25906;43.536;26.068;2023-10-19T10:04:06;2.28;;;2.00;;
40198;SDS011;25906;43.536;26.068;2023-10-19T10:07:18;2.47;;;2.10;;
40198;SDS011;25906;43.536;26.068;2023-10-19T10:10:03;1.67;;;1.55;;
40198;SDS011;25906;43.536;26.068;2023-10-19T10:12:49;2.33;;;2.00;;
40198;SDS011;25906;43.536;26.068;2023-10-19T10:15:38;5.65;;;2.58;;
40198;SDS011;25906;43.536;26.068;2023-10-19T10:18:31;3.15;;;2.10;;
40198;SDS011;25906;43.536;26.068;2023-10-19T10:21:20;5.05;;;2.10;;
40198;SDS011;25906;43.536;26.068;2023-10-19T10:24:09;2.42;;;2.13;;
40198;SDS011;25906;43.536;26.068;2023-10-19T10:26:57;2.85;;;2.13;;
40198;SDS011;25906;43.536;26.068;2023-10-19T10:30:04;6.00;;;2.60;;
40198;SDS011;25906;43.536;26.068;2023-10-19T10:32:53;5.55;;;2.45;;
40198;SDS011;25906;43.536;26.068;2023-10-19T10:38:26;3.28;;;2.40;;
40198;SDS011;25906;43.536;26.068;2023-10-19T10:41:22;2.92;;;1.98;;
40198;SDS011;25906;43.536;26.068;2023-10-19T10:44:17;2.42;;;1.70;;
40198;SDS011;25906;43.536;26.068;2023-10-19T10:47:07;2.45;;;1.70;;
40198;SDS011;25906;43.536;26.068;2023-10-19T10:50:18;2.47;;;1.80;;
40198;SDS011;25906;43.536;26.068;2023-10-19T10:53:05;2.47;;;1.88;;
40198;SDS011;25906;43.536;26.068;2023-10-19T10:55:50;1.90;;;1.65;;
40198;SDS011;25906;43.536;26.068;2023-10-19T11:01:28;1.90;;;1.67;;
40198;SDS011;25906;43.536;26.068;2023-10-19T11:04:15;1.45;;;1.30;;
40198;SDS011;25906;43.536;26.068;2023-10-19T11:07:01;2.83;;;1.77;;
40198;SDS011;25906;43.536;26.068;2023-10-19T11:09:46;3.55;;;1.75;;
40198;SDS011;25906;43.536;26.068;2023-10-19T11:12:32;2.35;;;1.60;;
40198;SDS011;25906;43.536;26.068;2023-10-19T11:15:20;3.25;;;1.50;;
40198;SDS011;25906;43.536;26.068;2023-10-19T11:18:06;1.83;;;1.58;;
40198;SDS011;25906;43.536;26.068;2023-10-19T11:20:55;4.72;;;1.55;;
40198;SDS011;25906;43.536;26.068;2023-10-19T11:23:43;1.65;;;1.30;;
40198;SDS011;25906;43.536;26.068;2023-10-19T11:26:30;3.65;;;1.48;;
40198;SDS011;25906;43.536;26.068;2023-10-19T11:29:16;3.65;;;1.42;;
40198;SDS011;25906;43.536;26.068;2023-10-19T11:32:01;5.43;;;1.73;;
40198;SDS011;25906;43.536;26.068;2023-10-19T11:34:47;2.78;;;1.27;;
40198;SDS011;25906;43.536;26.068;2023-10-19T11:40:34;2.15;;;1.30;;
40198;SDS011;25906;43.536;26.068;2023-10-19T11:43:19;1.48;;;1.20;;
40198;SDS011;25906;43.536;26.068;2023-10-19T11:46:05;5.00;;;1.20;;
40198;SDS011;25906;43.536;26.068;2023-10-19T11:51:36;1.33;;;1.23;;
40198;SDS011;25906;43.536;26.068;2023-10-19T11:54:22;2.05;;;1.40;;
40198;SDS011;25906;43.536;26.068;2023-10-19T11:59:53;1.80;;;1.25;;
40198;SDS011;25906;43.536;26.068;2023-10-19T12:02:39;2.70;;;1.65;;
40198;SDS011;25906;43.536;26.068;2023-10-19T12:05:26;3.08;;;1.55;;
40198;SDS011;25906;43.536;26.068;2023-10-19T12:08:11;3.13;;;1.50;;
40198;SDS011;25906;43.536;26.068;2023-10-19T12:10:57;4.80;;;1.40;;
40198;SDS011;25906;43.536;26.068;2023-10-19T12:16:31;3.10;;;1.40;;
40198;SDS011;25906;43.536;26.068;2023-10-19T12:19:17;1.55;;;1.40;;
40198;SDS011;25906;43.536;26.068;2023-10-19T12:22:04;2.33;;;1.85;;
40198;SDS011;25906;43.536;26.068;2023-10-19T12:24:49;1.85;;;1.50;;
40198;SDS011;25906;43.536;26.068;2023-10-19T12:27:36;2.17;;;1.42;;
40198;SDS011;25906;43.536;26.068;2023-10-19T12:30:23;3.72;;;1.90;;
40198;SDS011;25906;43.536;26.068;2023-10-19T12:33:11;2.03;;;1.50;;
40198;SDS011;25906;43.536;26.068;2023-10-19T12:35:56;2.40;;;1.52;;
40198;SDS011;25906;43.536;26.068;2023-10-19T12:38:44;3.00;;;1.50;;
40198;SDS011;25906;43.536;26.068;2023-10-19T12:41:30;1.52;;;1.33;;
40198;SDS011;25906;43.536;26.068;2023-10-19T12:44:16;2.90;;;1.88;;
40198;SDS011;25906;43.536;26.068;2023-10-19T12:47:02;2.25;;;1.63;;
40198;SDS011;25906;43.536;26.068;2023-10-19T12:49:49;4.38;;;1.60;;
40198;SDS011;25906;43.536;26.068;2023-10-19T12:52:36;2.60;;;1.70;;
40198;SDS011;25906;43.536;26.068;2023-10-19T12:55:22;2.17;;;1.90;;
40198;SDS011;25906;43.536;26.068;2023-10-19T12:58:12;3.10;;;2.13;;
40198;SDS011;25906;43.536;26.068;2023-10-19T13:01:00;1.75;;;1.40;;
40198;SDS011;25906;43.536;26.068;2023-10-19T13:03:45;2.35;;;1.98;;
40198;SDS011;25906;43.536;26.068;2023-10-19T13:06:31;2.97;;;1.90;;
40198;SDS011;25906;43.536;26.068;2023-10-19T13:09:18;2.25;;;1.77;;
40198;SDS011;25906;43.536;26.068;2023-10-19T13:12:15;2.38;;;2.00;;
40198;SDS011;25906;43.536;26.068;2023-10-19T13:15:01;2.67;;;2.08;;
40198;SDS011;25906;43.536;26.068;2023-10-19T13:17:49;2.75;;;2.10;;
40198;SDS011;25906;43.536;26.068;2023-10-19T13:20:37;3.53;;;2.45;;
40198;SDS011;25906;43.536;26.068;2023-10-19T13:23:23;3.90;;;2.13;;
40198;SDS011;25906;43.536;26.068;2023-10-19T13:26:09;3.50;;;1.98;;
40198;SDS011;25906;43.536;26.068;2023-10-19T13:29:01;9.15;;;2.58;;
40198;SDS011;25906;43.536;26.068;2023-10-19T13:31:47;2.58;;;2.10;;
40198;SDS011;25906;43.536;26.068;2023-10-19T13:34:35;5.57;;;2.60;;
40198;SDS011;25906;43.536;26.068;2023-10-19T13:37:23;3.38;;;2.13;;
40198;SDS011;25906;43.536;26.068;2023-10-19T13:40:09;3.97;;;2.20;;
40198;SDS011;25906;43.536;26.068;2023-10-19T13:42:56;2.60;;;2.25;;
40198;SDS011;25906;43.536;26.068;2023-10-19T13:45:42;3.50;;;2.10;;
40198;SDS011;25906;43.536;26.068;2023-10-19T13:48:30;4.43;;;2.10;;
40198;SDS011;25906;43.536;26.068;2023-10-19T13:51:17;4.75;;;2.25;;
40198;SDS011;25906;43.536;26.068;2023-10-19T13:54:04;5.75;;;2.78;;
40198;SDS011;25906;43.536;26.068;2023-10-19T13:56:51;3.33;;;2.28;;
40198;SDS011;25906;43.536;26.068;2023-10-19T13:59:36;3.20;;;2.05;;
40198;SDS011;25906;43.536;26.068;2023-10-19T14:02:22;3.20;;;2.00;;
40198;SDS011;25906;43.536;26.068;2023-10-19T14:05:08;6.13;;;2.50;;
40198;SDS011;25906;43.536;26.068;2023-10-19T14:07:53;8.52;;;2.00;;
40198;SDS011;25906;43.536;26.068;2023-10-19T14:10:39;5.18;;;2.10;;
40198;SDS011;25906;43.536;26.068;2023-10-19T14:13:26;2.83;;;2.10;;
40198;SDS011;25906;43.536;26.068;2023-10-19T14:16:11;2.25;;;2.00;;
40198;SDS011;25906;43.536;26.068;2023-10-19T14:18:57;3.92;;;2.20;;
40198;SDS011;25906;43.536;26.068;2023-10-19T14:21:43;4.07;;;1.67;;
40198;SDS011;25906;43.536;26.068;2023-10-19T14:24:31;3.28;;;2.10;;
40198;SDS011;25906;43.536;26.068;2023-10-19T14:27:16;3.78;;;2.05;;
40198;SDS011;25906;43.536;26.068;2023-10-19T14:30:02;2.78;;;2.17;;
40198;SDS011;25906;43.536;26.068;2023-10-19T14:32:48;59.78;;;9.93;;
40198;SDS011;25906;43.536;26.068;2023-10-19T14:38:21;9.18;;;3.72;;
40198;SDS011;25906;43.536;26.068;2023-10-19T14:41:10;8.27;;;3.50;;
40198;SDS011;25906;43.536;26.068;2023-10-19T14:43:56;3.25;;;1.98;;
40198;SDS011;25906;43.536;26.068;2023-10-19T14:46:44;5.28;;;1.92;;
40198;SDS011;25906;43.536;26.068;2023-10-19T14:49:30;3.45;;;1.70;;
40198;SDS011;25906;43.536;26.068;2023-10-19T14:52:15;4.88;;;1.98;;
40198;SDS011;25906;43.536;26.068;2023-10-19T14:55:01;2.03;;;1.83;;
40198;SDS011;25906;43.536;26.068;2023-10-19T14:57:47;3.85;;;1.58;;
40198;SDS011;25906;43.536;26.068;2023-10-19T15:00:34;4.53;;;1.85;;
40198;SDS011;25906;43.536;26.068;2023-10-19T15:03:22;9.93;;;2.03;;
40198;SDS011;25906;43.536;26.068;2023-10-19T15:06:09;4.50;;;2.00;;
40198;SDS011;25906;43.536;26.068;2023-10-19T15:08:55;7.35;;;1.80;;
40198;SDS011;25906;43.536;26.068;2023-10-19T15:11:41;3.08;;;1.80;;
40198;SDS011;25906;43.536;26.068;2023-10-19T15:14:28;2.40;;;1.80;;
40198;SDS011;25906;43.536;26.068;2023-10-19T15:17:13;3.95;;;1.48;;
40198;SDS011;25906;43.536;26.068;2023-10-19T15:19:59;1.75;;;1.65;;
40198;SDS011;25906;43.536;26.068;2023-10-19T15:22:44;2.38;;;2.03;;
40198;SDS011;25906;43.536;26.068;2023-10-19T15:25:31;2.83;;;1.70;;
40198;SDS011;25906;43.536;26.068;2023-10-19T15:28:16;6.30;;;2.22;;
40198;SDS011;25906;43.536;26.068;2023-10-19T15:31:02;4.00;;;2.00;;
40198;SDS011;25906;43.536;26.068;2023-10-19T15:33:50;3.83;;;1.73;;
40198;SDS011;25906;43.536;26.068;2023-10-19T15:36:36;5.90;;;1.75;;
40198;SDS011;25906;43.536;26.068;2023-10-19T15:39:22;3.55;;;2.17;;
40198;SDS011;25906;43.536;26.068;2023-10-19T15:42:08;4.25;;;2.28;;
40198;SDS011;25906;43.536;26.068;2023-10-19T15:44:53;4.60;;;1.98;;
40198;SDS011;25906;43.536;26.068;2023-10-19T15:47:39;4.20;;;2.22;;
40198;SDS011;25906;43.536;26.068;2023-10-19T15:50:25;4.93;;;2.03;;
40198;SDS011;25906;43.536;26.068;2023-10-19T15:53:12;4.93;;;2.22;;
40198;SDS011;25906;43.536;26.068;2023-10-19T15:55:57;10.05;;;2.85;;
40198;SDS011;25906;43.536;26.068;2023-10-19T15:58:43;4.28;;;3.10;;
40198;SDS011;25906;43.536;26.068;2023-10-19T16:01:29;3.90;;;2.70;;
40198;SDS011;25906;43.536;26.068;2023-10-19T16:04:15;2.53;;;2.13;;
40198;SDS011;25906;43.536;26.068;2023-10-19T16:09:46;7.65;;;2.50;;
40198;SDS011;25906;43.536;26.068;2023-10-19T16:12:31;2.72;;;2.42;;
40198;SDS011;25906;43.536;26.068;2023-10-19T16:15:17;2.65;;;2.15;;
40198;SDS011;25906;43.536;26.068;2023-10-19T16:18:02;6.75;;;2.70;;
40198;SDS011;25906;43.536;26.068;2023-10-19T16:20:49;3.92;;;2.58;;
40198;SDS011;25906;43.536;26.068;2023-10-19T16:23:35;3.70;;;2.83;;
40198;SDS011;25906;43.536;26.068;2023-10-19T16:26:20;7.57;;;3.03;;
40198;SDS011;25906;43.536;26.068;2023-10-19T16:29:06;8.43;;;3.00;;
40198;SDS011;25906;43.536;26.068;2023-10-19T16:32:00;5.40;;;3.20;;
40198;SDS011;25906;43.536;26.068;2023-10-19T16:34:45;4.50;;;2.92;;
40198;SDS011;25906;43.536;26.068;2023-10-19T16:37:32;4.28;;;2.90;;
40198;SDS011;25906;43.536;26.068;2023-10-19T16:40:18;4.10;;;2.90;;
40198;SDS011;25906;43.536;26.068;2023-10-19T16:43:03;4.25;;;3.38;;
40198;SDS011;25906;43.536;26.068;2023-10-19T16:45:53;13.35;;;3.60;;
40198;SDS011;25906;43.536;26.068;2023-10-19T16:48:39;7.35;;;3.22;;
40198;SDS011;25906;43.536;26.068;2023-10-19T16:51:25;4.18;;;3.00;;
40198;SDS011;25906;43.536;26.068;2023-10-19T16:54:10;4.70;;;3.22;;
40198;SDS011;25906;43.536;26.068;2023-10-19T16:56:56;8.52;;;3.30;;
40198;SDS011;25906;43.536;26.068;2023-10-19T16:59:41;7.95;;;3.40;;
40198;SDS011;25906;43.536;26.068;2023-10-19T17:02:27;9.30;;;3.28;;
40198;SDS011;25906;43.536;26.068;2023-10-19T17:05:12;3.08;;;2.67;;
40198;SDS011;25906;43.536;26.068;2023-10-19T17:07:58;4.82;;;3.40;;